sensor_id;sensor_type;location;lat;lon;timestamp;temperature;humidity
14008;DHT22;61651;45.508;12.232;2022-07-06T00:02:39;27.80;99.90
14008;DHT22;61651;45.508;12.232;2022-07-06T00:05:41;27.80;99.90
14008;DHT22;61651;45.508;12.232;2022-07-06T00:08:43;27.80;99.90
14008;DHT22;61651;45.508;12.232;2022-07-06T00:11:45;27.70;99.90
14008;DHT22;61651;45.508;12.232;2022-07-06T00:14:49;27.50;99.90
14008;DHT22;61651;45.508;12.232;2022-07-06T00:17:51;27.50;99.90
14008;DHT22;61651;45.508;12.232;2022-07-06T00:20:53;27.50;99.90
14008;DHT22;61651;45.508;12.232;2022-07-06T00:23:55;27.50;99.90
14008;DHT22;61651;45.508;12.232;2022-07-06T00:26:57;27.50;99.90
14008;DHT22;61651;45.508;12.232;2022-07-06T00:30:00;27.50;99.90
14008;DHT22;61651;45.508;12.232;2022-07-06T00:33:03;27.60;99.90
14008;DHT22;61651;45.508;12.232;2022-07-06T00:36:05;27.60;99.90
14008;DHT22;61651;45.508;12.232;2022-07-06T00:39:07;27.60;99.90
14008;DHT22;61651;45.508;12.232;2022-07-06T00:42:09;27.60;99.90
14008;DHT22;61651;45.508;12.232;2022-07-06T00:45:15;27.50;99.90
14008;DHT22;61651;45.508;12.232;2022-07-06T00:48:17;27.50;99.90
14008;DHT22;61651;45.508;12.232;2022-07-06T00:51:19;27.40;99.90
14008;DHT22;61651;45.508;12.232;2022-07-06T00:54:30;27.30;99.90
14008;DHT22;61651;45.508;12.232;2022-07-06T11:07:22;34.40;91.30
14008;DHT22;61651;45.508;12.232;2022-07-06T11:10:24;34.40;91.10
14008;DHT22;61651;45.508;12.232;2022-07-06T11:13:26;34.40;91.40
14008;DHT22;61651;45.508;12.232;2022-07-06T11:16:29;34.40;92.10
14008;DHT22;61651;45.508;12.232;2022-07-06T11:19:34;34.50;91.80
14008;DHT22;61651;45.508;12.232;2022-07-06T11:22:38;34.70;91.70
14008;DHT22;61651;45.508;12.232;2022-07-06T11:25:41;34.80;90.80
14008;DHT22;61651;45.508;12.232;2022-07-06T11:28:45;35.00;91.50
14008;DHT22;61651;45.508;12.232;2022-07-06T11:31:49;35.10;91.20
14008;DHT22;61651;45.508;12.232;2022-07-06T11:34:53;35.30;90.30
14008;DHT22;61651;45.508;12.232;2022-07-06T11:37:56;35.40;90.50
14008;DHT22;61651;45.508;12.232;2022-07-06T11:44:15;35.40;86.40
14008;DHT22;61651;45.508;12.232;2022-07-06T11:47:17;35.50;87.80
14008;DHT22;61651;45.508;12.232;2022-07-06T11:50:21;35.60;84.80
14008;DHT22;61651;45.508;12.232;2022-07-06T11:53:23;35.80;84.00
14008;DHT22;61651;45.508;12.232;2022-07-06T11:56:25;35.90;84.70
14008;DHT22;61651;45.508;12.232;2022-07-06T11:59:30;35.80;75.60
14008;DHT22;61651;45.508;12.232;2022-07-06T12:02:32;35.90;79.80
14008;DHT22;61651;45.508;12.232;2022-07-06T12:05:34;36.20;78.80
14008;DHT22;61651;45.508;12.232;2022-07-06T12:08:41;36.20;74.90
14008;DHT22;61651;45.508;12.232;2022-07-06T12:11:45;36.20;73.20
14008;DHT22;61651;45.508;12.232;2022-07-06T12:14:52;36.10;74.70
14008;DHT22;61651;45.508;12.232;2022-07-06T12:17:55;36.20;71.60
14008;DHT22;61651;45.508;12.232;2022-07-06T12:26:09;36.40;71.10
14008;DHT22;61651;45.508;12.232;2022-07-06T12:29:12;36.20;65.60
14008;DHT22;61651;45.508;12.232;2022-07-06T12:32:15;36.30;69.80
14008;DHT22;61651;45.508;12.232;2022-07-06T12:35:17;36.50;72.90
14008;DHT22;61651;45.508;12.232;2022-07-06T12:38:25;36.50;70.20
14008;DHT22;61651;45.508;12.232;2022-07-06T12:41:33;36.40;61.60
14008;DHT22;61651;45.508;12.232;2022-07-06T12:44:42;36.30;59.40
14008;DHT22;61651;45.508;12.232;2022-07-06T12:47:57;36.30;60.80
14008;DHT22;61651;45.508;12.232;2022-07-06T12:51:00;36.60;61.40
14008;DHT22;61651;45.508;12.232;2022-07-06T12:54:12;37.00;67.40
14008;DHT22;61651;45.508;12.232;2022-07-06T12:57:16;37.40;65.00
14008;DHT22;61651;45.508;12.232;2022-07-06T13:00:19;37.60;64.80
14008;DHT22;61651;45.508;12.232;2022-07-06T13:03:22;37.60;62.80
14008;DHT22;61651;45.508;12.232;2022-07-06T13:06:29;37.60;59.90
14008;DHT22;61651;45.508;12.232;2022-07-06T13:09:32;37.80;64.40
14008;DHT22;61651;45.508;12.232;2022-07-06T13:12:36;38.00;65.10
14008;DHT22;61651;45.508;12.232;2022-07-06T13:15:41;38.10;65.00
14008;DHT22;61651;45.508;12.232;2022-07-06T13:18:43;38.10;58.60
14008;DHT22;61651;45.508;12.232;2022-07-06T13:21:45;38.30;63.10
14008;DHT22;61651;45.508;12.232;2022-07-06T13:24:47;38.50;57.50
14008;DHT22;61651;45.508;12.232;2022-07-06T13:27:50;38.70;60.70
14008;DHT22;61651;45.508;12.232;2022-07-06T13:30:52;38.90;61.90
14008;DHT22;61651;45.508;12.232;2022-07-06T13:33:54;38.90;58.10
14008;DHT22;61651;45.508;12.232;2022-07-06T13:36:56;38.70;56.90
14008;DHT22;61651;45.508;12.232;2022-07-06T13:39:58;38.50;57.10
14008;DHT22;61651;45.508;12.232;2022-07-06T13:43:02;38.70;60.10
14008;DHT22;61651;45.508;12.232;2022-07-06T13:46:04;39.10;59.10
14008;DHT22;61651;45.508;12.232;2022-07-06T13:49:06;39.10;57.20
14008;DHT22;61651;45.508;12.232;2022-07-06T13:52:08;39.30;59.00
14008;DHT22;61651;45.508;12.232;2022-07-06T13:55:10;39.80;58.50
14008;DHT22;61651;45.508;12.232;2022-07-06T13:58:14;40.60;58.10
14008;DHT22;61651;45.508;12.232;2022-07-06T14:01:16;40.20;55.30
14008;DHT22;61651;45.508;12.232;2022-07-06T14:04:18;40.40;57.50
14008;DHT22;61651;45.508;12.232;2022-07-06T14:07:20;40.20;55.50
14008;DHT22;61651;45.508;12.232;2022-07-06T14:10:22;40.50;58.20
14008;DHT22;61651;45.508;12.232;2022-07-06T14:13:27;40.80;55.80
14008;DHT22;61651;45.508;12.232;2022-07-06T14:16:29;40.60;56.40
14008;DHT22;61651;45.508;12.232;2022-07-06T14:19:31;41.20;58.10
14008;DHT22;61651;45.508;12.232;2022-07-06T14:22:33;41.40;57.60
14008;DHT22;61651;45.508;12.232;2022-07-06T14:25:36;41.50;57.20
14008;DHT22;61651;45.508;12.232;2022-07-06T14:28:39;41.60;53.80
14008;DHT22;61651;45.508;12.232;2022-07-06T14:31:41;41.50;52.90
14008;DHT22;61651;45.508;12.232;2022-07-06T14:34:43;41.60;51.40
14008;DHT22;61651;45.508;12.232;2022-07-06T14:37:45;41.90;52.10
14008;DHT22;61651;45.508;12.232;2022-07-06T14:40:47;42.20;53.60
14008;DHT22;61651;45.508;12.232;2022-07-06T14:43:51;42.40;53.20
14008;DHT22;61651;45.508;12.232;2022-07-06T14:46:53;42.50;51.80
14008;DHT22;61651;45.508;12.232;2022-07-06T14:49:55;42.50;52.00
14008;DHT22;61651;45.508;12.232;2022-07-06T14:52:57;42.40;49.50
14008;DHT22;61651;45.508;12.232;2022-07-06T14:55:59;42.50;52.10
14008;DHT22;61651;45.508;12.232;2022-07-06T14:59:03;42.70;51.20
14008;DHT22;61651;45.508;12.232;2022-07-06T15:02:05;42.50;48.20
14008;DHT22;61651;45.508;12.232;2022-07-06T15:05:07;42.30;48.10
14008;DHT22;61651;45.508;12.232;2022-07-06T15:08:09;42.60;48.90
14008;DHT22;61651;45.508;12.232;2022-07-06T15:11:11;42.40;48.10
14008;DHT22;61651;45.508;12.232;2022-07-06T15:14:14;42.60;47.90
14008;DHT22;61651;45.508;12.232;2022-07-06T15:17:18;42.40;49.90
14008;DHT22;61651;45.508;12.232;2022-07-06T15:20:20;42.60;48.90
14008;DHT22;61651;45.508;12.232;2022-07-06T15:23:23;42.90;49.50
14008;DHT22;61651;45.508;12.232;2022-07-06T15:26:26;42.70;48.40
14008;DHT22;61651;45.508;12.232;2022-07-06T15:29:30;42.70;50.10
14008;DHT22;61651;45.508;12.232;2022-07-06T15:32:32;42.70;48.50
14008;DHT22;61651;45.508;12.232;2022-07-06T15:35:34;42.60;50.00
14008;DHT22;61651;45.508;12.232;2022-07-06T15:38:36;42.40;49.90
14008;DHT22;61651;45.508;12.232;2022-07-06T15:41:38;42.30;49.20
14008;DHT22;61651;45.508;12.232;2022-07-06T15:44:42;42.00;47.30
14008;DHT22;61651;45.508;12.232;2022-07-06T15:47:44;42.00;48.90
14008;DHT22;61651;45.508;12.232;2022-07-06T15:50:46;41.80;49.60
14008;DHT22;61651;45.508;12.232;2022-07-06T15:53:48;41.70;50.10
14008;DHT22;61651;45.508;12.232;2022-07-06T15:56:50;41.80;48.30
14008;DHT22;61651;45.508;12.232;2022-07-06T15:59:53;41.60;48.60
14008;DHT22;61651;45.508;12.232;2022-07-06T16:02:55;41.80;50.80
14008;DHT22;61651;45.508;12.232;2022-07-06T16:05:57;41.80;49.00
14008;DHT22;61651;45.508;12.232;2022-07-06T16:08:59;41.40;46.20
14008;DHT22;61651;45.508;12.232;2022-07-06T16:12:01;41.00;46.50
14008;DHT22;61651;45.508;12.232;2022-07-06T16:15:06;40.80;47.80
14008;DHT22;61651;45.508;12.232;2022-07-06T16:18:08;40.80;49.80
14008;DHT22;61651;45.508;12.232;2022-07-06T16:21:10;40.60;49.00
14008;DHT22;61651;45.508;12.232;2022-07-06T16:24:12;40.40;49.30
14008;DHT22;61651;45.508;12.232;2022-07-06T16:27:14;40.00;48.50
14008;DHT22;61651;45.508;12.232;2022-07-06T16:30:18;39.60;47.90
14008;DHT22;61651;45.508;12.232;2022-07-06T16:33:20;39.40;49.40
14008;DHT22;61651;45.508;12.232;2022-07-06T16:36:22;39.40;49.90
14008;DHT22;61651;45.508;12.232;2022-07-06T16:39:24;39.20;50.50
14008;DHT22;61651;45.508;12.232;2022-07-06T16:42:26;39.10;50.70
14008;DHT22;61651;45.508;12.232;2022-07-06T16:45:30;38.80;50.40
14008;DHT22;61651;45.508;12.232;2022-07-06T16:48:32;38.40;49.30
14008;DHT22;61651;45.508;12.232;2022-07-06T16:51:34;38.10;50.40
14008;DHT22;61651;45.508;12.232;2022-07-06T16:54:36;37.70;50.40
14008;DHT22;61651;45.508;12.232;2022-07-06T16:57:38;37.40;49.40
14008;DHT22;61651;45.508;12.232;2022-07-06T17:00:43;37.10;50.30
14008;DHT22;61651;45.508;12.232;2022-07-06T17:03:45;36.90;49.30
14008;DHT22;61651;45.508;12.232;2022-07-06T17:06:47;36.70;49.30
14008;DHT22;61651;45.508;12.232;2022-07-06T17:09:49;36.60;51.10
14008;DHT22;61651;45.508;12.232;2022-07-06T17:12:53;36.50;52.20
14008;DHT22;61651;45.508;12.232;2022-07-06T17:15:57;36.40;51.90
14008;DHT22;61651;45.508;12.232;2022-07-06T17:18:59;36.30;53.10
14008;DHT22;61651;45.508;12.232;2022-07-06T17:22:01;36.10;53.60
14008;DHT22;61651;45.508;12.232;2022-07-06T17:25:03;36.00;54.20
14008;DHT22;61651;45.508;12.232;2022-07-06T17:28:05;35.90;54.20
14008;DHT22;61651;45.508;12.232;2022-07-06T17:31:09;35.70;54.70
14008;DHT22;61651;45.508;12.232;2022-07-06T17:34:11;35.50;54.50
14008;DHT22;61651;45.508;12.232;2022-07-06T17:37:13;35.30;54.70
